<?xml version="1.0" encoding="UTF-8" standalone="no" ?>
<gpx xmlns="http://www.topografix.com/GPX/1/1" xmlns:xsi="http://www.w3.org/2001/XMLSchema-instance" xsi:schemaLocation="http://www.topografix.com/GPX/1/1 http://www.topografix.com/GPX/1/1/gpx.xsd" version="1.1" creator="VisuGPX - https://www.visugpx.com">
  <metadata>
    <name>83-AVF-Forêt du Muy - l Endre</name>
    <desc><![CDATA[Forêt du Muy - l'Endre]]></desc>
  </metadata>
  <trk>
    <name><![CDATA[muy2]]></name>
    <desc><![CDATA[<h1>OruxMaps</h1><br /><hr align="center" width="480" style="height: 2px; width: 517px"/><h2>Nom: muy2</h2><br /><p>Temps de départ: 10/04/2013 13:49</p><p>Temps d'arrivée: 10/04/2013 16:49</p><p>Distance: 6,6 km (02:15)</p><p>Temps déplacement: 02:01</p><p>Vitesse moyenne: 2,9 km/h</p><p>Vitesse moyenne: 3,3 km/h</p><p>Vitess Max.: 9,9 km/h</p><p>Altitude minimale: 15 m</p><p>Altitude maximale: 85 m</p><p>Vitesse d'élévation: 204,6 m/h</p><p>Vitesse de descente: -221,1 m/h</p><p>Gain Altitude: 96 m</p><p>Perte Altitude: -40 m</p><p>Temps d'élévation: 00:28</p><p>Temps de descente: 00:11</p><hr align="center" width="480" style="height: 2px; width: 517px"/>]]></desc>
    <trkseg>
      <trkpt lat="43.50461" lon="6.59072">
        <ele>28.24</ele>
        <time>2013-10-04T11:49:41Z</time>
      </trkpt>
      <trkpt lat="43.50456" lon="6.59061">
        <ele>20.37</ele>
        <time>2013-10-04T11:50:17Z</time>
      </trkpt>
      <trkpt lat="43.50457" lon="6.59061">
        <ele>21.75</ele>
        <time>2013-10-04T11:50:49Z</time>
      </trkpt>
      <trkpt lat="43.50437" lon="6.59061">
        <ele>25.22</ele>
        <time>2013-10-04T11:51:13Z</time>
      </trkpt>
      <trkpt lat="43.50418" lon="6.59063">
        <ele>26.57</ele>
        <time>2013-10-04T11:51:33Z</time>
      </trkpt>
      <trkpt lat="43.50399" lon="6.5907">
        <ele>27.8</ele>
        <time>2013-10-04T11:51:53Z</time>
      </trkpt>
      <trkpt lat="43.50381" lon="6.59073">
        <ele>30.03</ele>
        <time>2013-10-04T11:52:15Z</time>
      </trkpt>
      <trkpt lat="43.50381" lon="6.59073">
        <ele>30.03</ele>
        <time>2013-10-04T11:52:15Z</time>
      </trkpt>
      <trkpt lat="43.50365" lon="6.59087">
        <ele>34.38</ele>
        <time>2013-10-04T11:52:39Z</time>
      </trkpt>
      <trkpt lat="43.50356" lon="6.5911">
        <ele>36.15</ele>
        <time>2013-10-04T11:53:01Z</time>
      </trkpt>
      <trkpt lat="43.50361" lon="6.59135">
        <ele>38.54</ele>
        <time>2013-10-04T11:53:38Z</time>
      </trkpt>
      <trkpt lat="43.50377" lon="6.59146">
        <ele>41.83</ele>
        <time>2013-10-04T11:54:10Z</time>
      </trkpt>
      <trkpt lat="43.50395" lon="6.59152">
        <ele>47.6</ele>
        <time>2013-10-04T11:54:48Z</time>
      </trkpt>
      <trkpt lat="43.50414" lon="6.59161">
        <ele>49.49</ele>
        <time>2013-10-04T11:55:12Z</time>
      </trkpt>
      <trkpt lat="43.50432" lon="6.59166">
        <ele>50.49</ele>
        <time>2013-10-04T11:55:34Z</time>
      </trkpt>
      <trkpt lat="43.50432" lon="6.59166">
        <ele>50.49</ele>
        <time>2013-10-04T11:55:34Z</time>
      </trkpt>
      <trkpt lat="43.5045" lon="6.59177">
        <ele>52.03</ele>
        <time>2013-10-04T11:56:00Z</time>
      </trkpt>
      <trkpt lat="43.50466" lon="6.5919">
        <ele>52.45</ele>
        <time>2013-10-04T11:56:26Z</time>
      </trkpt>
      <trkpt lat="43.5048" lon="6.59207">
        <ele>53.7</ele>
        <time>2013-10-04T11:56:48Z</time>
      </trkpt>
      <trkpt lat="43.50491" lon="6.59229">
        <ele>53.13</ele>
        <time>2013-10-04T11:57:26Z</time>
      </trkpt>
      <trkpt lat="43.50497" lon="6.59252">
        <ele>55.4</ele>
        <time>2013-10-04T11:58:15Z</time>
      </trkpt>
      <trkpt lat="43.50495" lon="6.59277">
        <ele>55.46</ele>
        <time>2013-10-04T11:58:29Z</time>
      </trkpt>
      <trkpt lat="43.50492" lon="6.59303">
        <ele>54.41</ele>
        <time>2013-10-04T11:58:43Z</time>
      </trkpt>
      <trkpt lat="43.50489" lon="6.59329">
        <ele>53.38</ele>
        <time>2013-10-04T11:59:03Z</time>
      </trkpt>
      <trkpt lat="43.50489" lon="6.59354">
        <ele>53.16</ele>
        <time>2013-10-04T11:59:25Z</time>
      </trkpt>
      <trkpt lat="43.50491" lon="6.59379">
        <ele>53.64</ele>
        <time>2013-10-04T11:59:45Z</time>
      </trkpt>
      <trkpt lat="43.50495" lon="6.59397">
        <ele>53.48</ele>
        <time>2013-10-04T12:00:47Z</time>
      </trkpt>
      <trkpt lat="43.50495" lon="6.59397">
        <ele>53.48</ele>
        <time>2013-10-04T12:00:47Z</time>
      </trkpt>
      <trkpt lat="43.505" lon="6.59397">
        <ele>52.98</ele>
        <time>2013-10-04T12:01:59Z</time>
      </trkpt>
      <trkpt lat="43.5049" lon="6.59419">
        <ele>52.75</ele>
        <time>2013-10-04T12:02:17Z</time>
      </trkpt>
      <trkpt lat="43.50477" lon="6.59438">
        <ele>53.07</ele>
        <time>2013-10-04T12:02:37Z</time>
      </trkpt>
      <trkpt lat="43.50465" lon="6.59458">
        <ele>54.29</ele>
        <time>2013-10-04T12:02:59Z</time>
      </trkpt>
      <trkpt lat="43.50451" lon="6.59475">
        <ele>55.21</ele>
        <time>2013-10-04T12:03:19Z</time>
      </trkpt>
      <trkpt lat="43.50435" lon="6.59488">
        <ele>56.26</ele>
        <time>2013-10-04T12:03:39Z</time>
      </trkpt>
      <trkpt lat="43.50418" lon="6.59501">
        <ele>56.96</ele>
        <time>2013-10-04T12:03:59Z</time>
      </trkpt>
      <trkpt lat="43.50401" lon="6.59512">
        <ele>57.21</ele>
        <time>2013-10-04T12:04:17Z</time>
      </trkpt>
      <trkpt lat="43.50383" lon="6.59525">
        <ele>58.51</ele>
        <time>2013-10-04T12:04:37Z</time>
      </trkpt>
      <trkpt lat="43.50383" lon="6.59525">
        <ele>58.51</ele>
        <time>2013-10-04T12:04:37Z</time>
      </trkpt>
      <trkpt lat="43.50367" lon="6.59537">
        <ele>58.63</ele>
        <time>2013-10-04T12:04:57Z</time>
      </trkpt>
      <trkpt lat="43.5035" lon="6.59548">
        <ele>58.5</ele>
        <time>2013-10-04T12:05:15Z</time>
      </trkpt>
      <trkpt lat="43.50332" lon="6.5956">
        <ele>57.59</ele>
        <time>2013-10-04T12:05:35Z</time>
      </trkpt>
      <trkpt lat="43.50315" lon="6.59571">
        <ele>57.26</ele>
        <time>2013-10-04T12:05:55Z</time>
      </trkpt>
      <trkpt lat="43.50297" lon="6.59581">
        <ele>56.52</ele>
        <time>2013-10-04T12:06:17Z</time>
      </trkpt>
      <trkpt lat="43.5028" lon="6.59592">
        <ele>56.84</ele>
        <time>2013-10-04T12:06:37Z</time>
      </trkpt>
      <trkpt lat="43.50262" lon="6.59603">
        <ele>56.92</ele>
        <time>2013-10-04T12:06:59Z</time>
      </trkpt>
      <trkpt lat="43.50244" lon="6.59614">
        <ele>57.39</ele>
        <time>2013-10-04T12:07:19Z</time>
      </trkpt>
      <trkpt lat="43.50244" lon="6.59614">
        <ele>57.39</ele>
        <time>2013-10-04T12:07:19Z</time>
      </trkpt>
      <trkpt lat="43.50226" lon="6.59621">
        <ele>57.83</ele>
        <time>2013-10-04T12:07:39Z</time>
      </trkpt>
      <trkpt lat="43.50211" lon="6.59637">
        <ele>58.64</ele>
        <time>2013-10-04T12:08:03Z</time>
      </trkpt>
      <trkpt lat="43.50195" lon="6.59649">
        <ele>58.24</ele>
        <time>2013-10-04T12:08:23Z</time>
      </trkpt>
      <trkpt lat="43.50178" lon="6.59659">
        <ele>58.18</ele>
        <time>2013-10-04T12:08:49Z</time>
      </trkpt>
      <trkpt lat="43.50166" lon="6.59658">
        <ele>58.49</ele>
        <time>2013-10-04T12:09:21Z</time>
      </trkpt>
      <trkpt lat="43.50165" lon="6.59662">
        <ele>58.62</ele>
        <time>2013-10-04T12:09:49Z</time>
      </trkpt>
      <trkpt lat="43.50147" lon="6.59663">
        <ele>58.13</ele>
        <time>2013-10-04T12:10:07Z</time>
      </trkpt>
      <trkpt lat="43.50129" lon="6.59658">
        <ele>58.56</ele>
        <time>2013-10-04T12:10:27Z</time>
      </trkpt>
      <trkpt lat="43.50129" lon="6.59658">
        <ele>58.56</ele>
        <time>2013-10-04T12:10:27Z</time>
      </trkpt>
      <trkpt lat="43.50113" lon="6.59645">
        <ele>58.94</ele>
        <time>2013-10-04T12:10:49Z</time>
      </trkpt>
      <trkpt lat="43.50097" lon="6.59634">
        <ele>58.35</ele>
        <time>2013-10-04T12:11:29Z</time>
      </trkpt>
      <trkpt lat="43.50081" lon="6.59617">
        <ele>57.9</ele>
        <time>2013-10-04T12:12:00Z</time>
      </trkpt>
      <trkpt lat="43.50066" lon="6.59609">
        <ele>57.67</ele>
        <time>2013-10-04T12:12:36Z</time>
      </trkpt>
      <trkpt lat="43.50066" lon="6.59609">
        <ele>57.67</ele>
        <time>2013-10-04T12:12:36Z</time>
      </trkpt>
      <trkpt lat="43.50058" lon="6.59586">
        <ele>55.56</ele>
        <time>2013-10-04T12:13:38Z</time>
      </trkpt>
      <trkpt lat="43.50046" lon="6.59565">
        <ele>54.5</ele>
        <time>2013-10-04T12:13:58Z</time>
      </trkpt>
      <trkpt lat="43.50034" lon="6.59544">
        <ele>53.45</ele>
        <time>2013-10-04T12:14:18Z</time>
      </trkpt>
      <trkpt lat="43.50022" lon="6.59524">
        <ele>52.61</ele>
        <time>2013-10-04T12:14:36Z</time>
      </trkpt>
      <trkpt lat="43.50009" lon="6.59503">
        <ele>51.17</ele>
        <time>2013-10-04T12:14:56Z</time>
      </trkpt>
      <trkpt lat="43.50002" lon="6.59499">
        <ele>48.52</ele>
        <time>2013-10-04T12:15:38Z</time>
      </trkpt>
      <trkpt lat="43.49991" lon="6.59477">
        <ele>46.28</ele>
        <time>2013-10-04T12:16:14Z</time>
      </trkpt>
      <trkpt lat="43.4998" lon="6.59457">
        <ele>45.49</ele>
        <time>2013-10-04T12:16:30Z</time>
      </trkpt>
      <trkpt lat="43.4998" lon="6.59457">
        <ele>45.49</ele>
        <time>2013-10-04T12:16:30Z</time>
      </trkpt>
      <trkpt lat="43.49967" lon="6.59447">
        <ele>44.86</ele>
        <time>2013-10-04T12:17:10Z</time>
      </trkpt>
      <trkpt lat="43.49971" lon="6.59448">
        <ele>44.14</ele>
        <time>2013-10-04T12:18:10Z</time>
      </trkpt>
      <trkpt lat="43.49968" lon="6.59446">
        <ele>43.69</ele>
        <time>2013-10-04T12:18:38Z</time>
      </trkpt>
      <trkpt lat="43.49954" lon="6.59429">
        <ele>43.51</ele>
        <time>2013-10-04T12:18:56Z</time>
      </trkpt>
      <trkpt lat="43.49941" lon="6.5941">
        <ele>43.09</ele>
        <time>2013-10-04T12:19:16Z</time>
      </trkpt>
      <trkpt lat="43.49941" lon="6.5941">
        <ele>43.09</ele>
        <time>2013-10-04T12:19:16Z</time>
      </trkpt>
      <trkpt lat="43.49925" lon="6.59392">
        <ele>41.94</ele>
        <time>2013-10-04T12:19:42Z</time>
      </trkpt>
      <trkpt lat="43.4991" lon="6.59376">
        <ele>41.77</ele>
        <time>2013-10-04T12:20:06Z</time>
      </trkpt>
      <trkpt lat="43.49896" lon="6.59361">
        <ele>41.64</ele>
        <time>2013-10-04T12:20:28Z</time>
      </trkpt>
      <trkpt lat="43.49879" lon="6.59348">
        <ele>41.27</ele>
        <time>2013-10-04T12:20:50Z</time>
      </trkpt>
      <trkpt lat="43.49864" lon="6.59332">
        <ele>39.89</ele>
        <time>2013-10-04T12:21:18Z</time>
      </trkpt>
      <trkpt lat="43.49848" lon="6.59318">
        <ele>37.08</ele>
        <time>2013-10-04T12:21:44Z</time>
      </trkpt>
      <trkpt lat="43.49832" lon="6.59306">
        <ele>34.38</ele>
        <time>2013-10-04T12:22:06Z</time>
      </trkpt>
      <trkpt lat="43.49827" lon="6.59281">
        <ele>33.79</ele>
        <time>2013-10-04T12:22:28Z</time>
      </trkpt>
      <trkpt lat="43.49827" lon="6.59281">
        <ele>33.79</ele>
        <time>2013-10-04T12:22:28Z</time>
      </trkpt>
      <trkpt lat="43.49831" lon="6.59256">
        <ele>30.29</ele>
        <time>2013-10-04T12:23:02Z</time>
      </trkpt>
      <trkpt lat="43.49823" lon="6.59254">
        <ele>34.87</ele>
        <time>2013-10-04T12:24:12Z</time>
      </trkpt>
      <trkpt lat="43.49838" lon="6.59237">
        <ele>34.76</ele>
        <time>2013-10-04T12:24:42Z</time>
      </trkpt>
      <trkpt lat="43.49838" lon="6.59237">
        <ele>34.76</ele>
        <time>2013-10-04T12:24:42Z</time>
      </trkpt>
      <trkpt lat="43.49844" lon="6.59214">
        <ele>32.57</ele>
        <time>2013-10-04T12:25:38Z</time>
      </trkpt>
      <trkpt lat="43.49851" lon="6.59191">
        <ele>32.43</ele>
        <time>2013-10-04T12:26:00Z</time>
      </trkpt>
      <trkpt lat="43.49854" lon="6.59164">
        <ele>30.93</ele>
        <time>2013-10-04T12:26:26Z</time>
      </trkpt>
      <trkpt lat="43.49848" lon="6.59157">
        <ele>29.92</ele>
        <time>2013-10-04T12:28:44Z</time>
      </trkpt>
      <trkpt lat="43.49831" lon="6.59169">
        <ele>29.64</ele>
        <time>2013-10-04T12:29:28Z</time>
      </trkpt>
      <trkpt lat="43.4982" lon="6.59191">
        <ele>28.65</ele>
        <time>2013-10-04T12:29:50Z</time>
      </trkpt>
      <trkpt lat="43.49803" lon="6.59206">
        <ele>29</ele>
        <time>2013-10-04T12:30:20Z</time>
      </trkpt>
      <trkpt lat="43.4979" lon="6.59226">
        <ele>28.64</ele>
        <time>2013-10-04T12:30:42Z</time>
      </trkpt>
      <trkpt lat="43.4978" lon="6.59249">
        <ele>25.96</ele>
        <time>2013-10-04T12:31:06Z</time>
      </trkpt>
      <trkpt lat="43.49774" lon="6.59274">
        <ele>22.58</ele>
        <time>2013-10-04T12:31:26Z</time>
      </trkpt>
      <trkpt lat="43.49774" lon="6.59274">
        <ele>22.58</ele>
        <time>2013-10-04T12:31:26Z</time>
      </trkpt>
      <trkpt lat="43.49764" lon="6.59295">
        <ele>18.73</ele>
        <time>2013-10-04T12:31:46Z</time>
      </trkpt>
      <trkpt lat="43.49756" lon="6.59318">
        <ele>17.69</ele>
        <time>2013-10-04T12:32:12Z</time>
      </trkpt>
      <trkpt lat="43.49743" lon="6.59336">
        <ele>17.62</ele>
        <time>2013-10-04T12:32:34Z</time>
      </trkpt>
      <trkpt lat="43.49738" lon="6.59355">
        <ele>18.18</ele>
        <time>2013-10-04T12:34:02Z</time>
      </trkpt>
      <trkpt lat="43.49735" lon="6.5934">
        <ele>18.54</ele>
        <time>2013-10-04T12:34:30Z</time>
      </trkpt>
      <trkpt lat="43.49735" lon="6.5934">
        <ele>18.54</ele>
        <time>2013-10-04T12:34:30Z</time>
      </trkpt>
      <trkpt lat="43.49739" lon="6.59346">
        <ele>20.03</ele>
        <time>2013-10-04T12:35:08Z</time>
      </trkpt>
      <trkpt lat="43.49722" lon="6.59354">
        <ele>21.49</ele>
        <time>2013-10-04T12:35:49Z</time>
      </trkpt>
      <trkpt lat="43.4971" lon="6.59373">
        <ele>18.14</ele>
        <time>2013-10-04T12:36:17Z</time>
      </trkpt>
      <trkpt lat="43.49703" lon="6.59398">
        <ele>18.66</ele>
        <time>2013-10-04T12:36:43Z</time>
      </trkpt>
      <trkpt lat="43.49697" lon="6.59409">
        <ele>17.63</ele>
        <time>2013-10-04T12:37:25Z</time>
      </trkpt>
      <trkpt lat="43.49697" lon="6.59409">
        <ele>17.63</ele>
        <time>2013-10-04T12:37:25Z</time>
      </trkpt>
      <trkpt lat="43.497" lon="6.59412">
        <ele>17.99</ele>
        <time>2013-10-04T12:37:52Z</time>
      </trkpt>
      <trkpt lat="43.49682" lon="6.59411">
        <ele>18.09</ele>
        <time>2013-10-04T12:38:12Z</time>
      </trkpt>
      <trkpt lat="43.49664" lon="6.59423">
        <ele>18.15</ele>
        <time>2013-10-04T12:38:30Z</time>
      </trkpt>
      <trkpt lat="43.49648" lon="6.59436">
        <ele>18.35</ele>
        <time>2013-10-04T12:38:50Z</time>
      </trkpt>
      <trkpt lat="43.49633" lon="6.59449">
        <ele>16.53</ele>
        <time>2013-10-04T12:39:18Z</time>
      </trkpt>
      <trkpt lat="43.49614" lon="6.59454">
        <ele>16.24</ele>
        <time>2013-10-04T12:39:34Z</time>
      </trkpt>
      <trkpt lat="43.49597" lon="6.59467">
        <ele>15.73</ele>
        <time>2013-10-04T12:39:56Z</time>
      </trkpt>
      <trkpt lat="43.49578" lon="6.59468">
        <ele>15.95</ele>
        <time>2013-10-04T12:40:14Z</time>
      </trkpt>
      <trkpt lat="43.49578" lon="6.59468">
        <ele>15.95</ele>
        <time>2013-10-04T12:40:14Z</time>
      </trkpt>
      <trkpt lat="43.49559" lon="6.59474">
        <ele>16.72</ele>
        <time>2013-10-04T12:40:40Z</time>
      </trkpt>
      <trkpt lat="43.4954" lon="6.59478">
        <ele>17.1</ele>
        <time>2013-10-04T12:41:04Z</time>
      </trkpt>
      <trkpt lat="43.49521" lon="6.59479">
        <ele>17.98</ele>
        <time>2013-10-04T12:41:28Z</time>
      </trkpt>
      <trkpt lat="43.49501" lon="6.5948">
        <ele>17.96</ele>
        <time>2013-10-04T12:41:54Z</time>
      </trkpt>
      <trkpt lat="43.49482" lon="6.5948">
        <ele>18.46</ele>
        <time>2013-10-04T12:42:12Z</time>
      </trkpt>
      <trkpt lat="43.49464" lon="6.59486">
        <ele>18.83</ele>
        <time>2013-10-04T12:42:36Z</time>
      </trkpt>
      <trkpt lat="43.49445" lon="6.59485">
        <ele>19.51</ele>
        <time>2013-10-04T12:43:02Z</time>
      </trkpt>
      <trkpt lat="43.49446" lon="6.59486">
        <ele>19.72</ele>
        <time>2013-10-04T12:43:18Z</time>
      </trkpt>
      <trkpt lat="43.49446" lon="6.59486">
        <ele>19.72</ele>
        <time>2013-10-04T12:43:18Z</time>
      </trkpt>
      <trkpt lat="43.49443" lon="6.5949">
        <ele>20.52</ele>
        <time>2013-10-04T12:43:42Z</time>
      </trkpt>
      <trkpt lat="43.49462" lon="6.59489">
        <ele>20.53</ele>
        <time>2013-10-04T12:44:20Z</time>
      </trkpt>
      <trkpt lat="43.49482" lon="6.59488">
        <ele>20.56</ele>
        <time>2013-10-04T12:44:40Z</time>
      </trkpt>
      <trkpt lat="43.49502" lon="6.59495">
        <ele>20.32</ele>
        <time>2013-10-04T12:44:50Z</time>
      </trkpt>
      <trkpt lat="43.49533" lon="6.59492">
        <ele>34.78</ele>
        <time>2013-10-04T12:45:12Z</time>
      </trkpt>
      <trkpt lat="43.49528" lon="6.59485">
        <ele>47.26</ele>
        <time>2013-10-04T12:45:26Z</time>
      </trkpt>
      <trkpt lat="43.49527" lon="6.59487">
        <ele>44.94</ele>
        <time>2013-10-04T12:46:18Z</time>
      </trkpt>
      <trkpt lat="43.49527" lon="6.59487">
        <ele>44.94</ele>
        <time>2013-10-04T12:46:18Z</time>
      </trkpt>
      <trkpt lat="43.49509" lon="6.59482">
        <ele>36.87</ele>
        <time>2013-10-04T12:46:40Z</time>
      </trkpt>
      <trkpt lat="43.4949" lon="6.59485">
        <ele>32.1</ele>
        <time>2013-10-04T12:46:59Z</time>
      </trkpt>
      <trkpt lat="43.49472" lon="6.59481">
        <ele>28.59</ele>
        <time>2013-10-04T12:47:15Z</time>
      </trkpt>
      <trkpt lat="43.49454" lon="6.5949">
        <ele>26.54</ele>
        <time>2013-10-04T12:47:35Z</time>
      </trkpt>
      <trkpt lat="43.49436" lon="6.59485">
        <ele>24.62</ele>
        <time>2013-10-04T12:48:03Z</time>
      </trkpt>
      <trkpt lat="43.49417" lon="6.59486">
        <ele>24.9</ele>
        <time>2013-10-04T12:48:19Z</time>
      </trkpt>
      <trkpt lat="43.49399" lon="6.59484">
        <ele>25.11</ele>
        <time>2013-10-04T12:48:33Z</time>
      </trkpt>
      <trkpt lat="43.49379" lon="6.59478">
        <ele>25.51</ele>
        <time>2013-10-04T12:48:59Z</time>
      </trkpt>
      <trkpt lat="43.49366" lon="6.5946">
        <ele>23.21</ele>
        <time>2013-10-04T12:49:25Z</time>
      </trkpt>
      <trkpt lat="43.49366" lon="6.5946">
        <ele>23.21</ele>
        <time>2013-10-04T12:49:25Z</time>
      </trkpt>
      <trkpt lat="43.49352" lon="6.59443">
        <ele>22.49</ele>
        <time>2013-10-04T12:49:39Z</time>
      </trkpt>
      <trkpt lat="43.49343" lon="6.59421">
        <ele>21.93</ele>
        <time>2013-10-04T12:50:03Z</time>
      </trkpt>
      <trkpt lat="43.49333" lon="6.594">
        <ele>22.42</ele>
        <time>2013-10-04T12:50:27Z</time>
      </trkpt>
      <trkpt lat="43.49323" lon="6.59376">
        <ele>21.36</ele>
        <time>2013-10-04T12:51:27Z</time>
      </trkpt>
      <trkpt lat="43.49324" lon="6.5935">
        <ele>20.41</ele>
        <time>2013-10-04T12:51:57Z</time>
      </trkpt>
      <trkpt lat="43.49326" lon="6.59322">
        <ele>20.84</ele>
        <time>2013-10-04T12:52:23Z</time>
      </trkpt>
      <trkpt lat="43.49326" lon="6.59322">
        <ele>20.84</ele>
        <time>2013-10-04T12:52:23Z</time>
      </trkpt>
      <trkpt lat="43.49324" lon="6.59306">
        <ele>22.08</ele>
        <time>2013-10-04T12:53:01Z</time>
      </trkpt>
      <trkpt lat="43.49319" lon="6.59282">
        <ele>21.62</ele>
        <time>2013-10-04T12:53:45Z</time>
      </trkpt>
      <trkpt lat="43.49328" lon="6.59256">
        <ele>21.18</ele>
        <time>2013-10-04T12:54:09Z</time>
      </trkpt>
      <trkpt lat="43.49324" lon="6.5923">
        <ele>21.11</ele>
        <time>2013-10-04T12:54:43Z</time>
      </trkpt>
      <trkpt lat="43.49328" lon="6.59224">
        <ele>21.35</ele>
        <time>2013-10-04T12:54:57Z</time>
      </trkpt>
      <trkpt lat="43.49333" lon="6.592">
        <ele>21.39</ele>
        <time>2013-10-04T12:55:19Z</time>
      </trkpt>
      <trkpt lat="43.49322" lon="6.59179">
        <ele>21.44</ele>
        <time>2013-10-04T12:55:37Z</time>
      </trkpt>
      <trkpt lat="43.49322" lon="6.59179">
        <ele>21.44</ele>
        <time>2013-10-04T12:55:37Z</time>
      </trkpt>
      <trkpt lat="43.49321" lon="6.59151">
        <ele>21.62</ele>
        <time>2013-10-04T12:55:57Z</time>
      </trkpt>
      <trkpt lat="43.4932" lon="6.59125">
        <ele>22.26</ele>
        <time>2013-10-04T12:56:17Z</time>
      </trkpt>
      <trkpt lat="43.49315" lon="6.59099">
        <ele>21.61</ele>
        <time>2013-10-04T12:56:39Z</time>
      </trkpt>
      <trkpt lat="43.49309" lon="6.59075">
        <ele>20.72</ele>
        <time>2013-10-04T12:57:07Z</time>
      </trkpt>
      <trkpt lat="43.493" lon="6.59052">
        <ele>21.05</ele>
        <time>2013-10-04T12:57:33Z</time>
      </trkpt>
      <trkpt lat="43.49286" lon="6.59033">
        <ele>21.28</ele>
        <time>2013-10-04T12:58:01Z</time>
      </trkpt>
      <trkpt lat="43.49286" lon="6.59033">
        <ele>21.28</ele>
        <time>2013-10-04T12:58:01Z</time>
      </trkpt>
      <trkpt lat="43.49269" lon="6.59033">
        <ele>22.94</ele>
        <time>2013-10-04T12:59:03Z</time>
      </trkpt>
      <trkpt lat="43.49251" lon="6.59037">
        <ele>18.53</ele>
        <time>2013-10-04T13:00:21Z</time>
      </trkpt>
      <trkpt lat="43.49249" lon="6.59041">
        <ele>17.37</ele>
        <time>2013-10-04T13:01:10Z</time>
      </trkpt>
      <trkpt lat="43.49249" lon="6.59041">
        <ele>17.37</ele>
        <time>2013-10-04T13:01:10Z</time>
      </trkpt>
      <trkpt lat="43.49248" lon="6.5904">
        <ele>16.63</ele>
        <time>2013-10-04T13:02:02Z</time>
      </trkpt>
      <trkpt lat="43.49253" lon="6.59065">
        <ele>15.6</ele>
        <time>2013-10-04T13:02:32Z</time>
      </trkpt>
      <trkpt lat="43.49236" lon="6.59079">
        <ele>15.12</ele>
        <time>2013-10-04T13:02:54Z</time>
      </trkpt>
      <trkpt lat="43.49219" lon="6.59088">
        <ele>15.7</ele>
        <time>2013-10-04T13:03:12Z</time>
      </trkpt>
      <trkpt lat="43.49203" lon="6.59098">
        <ele>16.01</ele>
        <time>2013-10-04T13:03:30Z</time>
      </trkpt>
      <trkpt lat="43.49185" lon="6.59109">
        <ele>17.43</ele>
        <time>2013-10-04T13:03:54Z</time>
      </trkpt>
      <trkpt lat="43.49167" lon="6.5912">
        <ele>19.02</ele>
        <time>2013-10-04T13:04:18Z</time>
      </trkpt>
      <trkpt lat="43.49167" lon="6.5912">
        <ele>19.02</ele>
        <time>2013-10-04T13:04:18Z</time>
      </trkpt>
      <trkpt lat="43.4915" lon="6.59128">
        <ele>19.18</ele>
        <time>2013-10-04T13:04:40Z</time>
      </trkpt>
      <trkpt lat="43.49134" lon="6.59142">
        <ele>18.61</ele>
        <time>2013-10-04T13:05:00Z</time>
      </trkpt>
      <trkpt lat="43.49117" lon="6.59157">
        <ele>17.84</ele>
        <time>2013-10-04T13:05:20Z</time>
      </trkpt>
      <trkpt lat="43.49102" lon="6.59171">
        <ele>18.09</ele>
        <time>2013-10-04T13:05:38Z</time>
      </trkpt>
      <trkpt lat="43.49086" lon="6.59185">
        <ele>17.58</ele>
        <time>2013-10-04T13:05:58Z</time>
      </trkpt>
      <trkpt lat="43.49071" lon="6.59201">
        <ele>16.8</ele>
        <time>2013-10-04T13:06:16Z</time>
      </trkpt>
      <trkpt lat="43.49055" lon="6.59216">
        <ele>16.86</ele>
        <time>2013-10-04T13:06:36Z</time>
      </trkpt>
      <trkpt lat="43.49039" lon="6.59231">
        <ele>17.1</ele>
        <time>2013-10-04T13:06:58Z</time>
      </trkpt>
      <trkpt lat="43.49039" lon="6.59231">
        <ele>17.1</ele>
        <time>2013-10-04T13:06:58Z</time>
      </trkpt>
      <trkpt lat="43.49029" lon="6.59245">
        <ele>16.36</ele>
        <time>2013-10-04T13:07:46Z</time>
      </trkpt>
      <trkpt lat="43.4903" lon="6.59239">
        <ele>16.52</ele>
        <time>2013-10-04T13:08:18Z</time>
      </trkpt>
      <trkpt lat="43.49033" lon="6.59239">
        <ele>18.03</ele>
        <time>2013-10-04T13:08:54Z</time>
      </trkpt>
      <trkpt lat="43.49034" lon="6.59235">
        <ele>21.77</ele>
        <time>2013-10-04T13:10:08Z</time>
      </trkpt>
      <trkpt lat="43.49034" lon="6.59235">
        <ele>21.77</ele>
        <time>2013-10-04T13:10:08Z</time>
      </trkpt>
      <trkpt lat="43.4903" lon="6.59244">
        <ele>23.05</ele>
        <time>2013-10-04T13:10:44Z</time>
      </trkpt>
      <trkpt lat="43.49025" lon="6.59252">
        <ele>22.68</ele>
        <time>2013-10-04T13:11:22Z</time>
      </trkpt>
      <trkpt lat="43.49033" lon="6.59236">
        <ele>16.02</ele>
        <time>2013-10-04T13:16:27Z</time>
      </trkpt>
      <trkpt lat="43.49033" lon="6.59236">
        <ele>16.02</ele>
        <time>2013-10-04T13:16:27Z</time>
      </trkpt>
      <trkpt lat="43.49017" lon="6.59249">
        <ele>16.53</ele>
        <time>2013-10-04T13:16:41Z</time>
      </trkpt>
      <trkpt lat="43.49001" lon="6.59263">
        <ele>17.67</ele>
        <time>2013-10-04T13:17:01Z</time>
      </trkpt>
      <trkpt lat="43.48987" lon="6.59279">
        <ele>19.48</ele>
        <time>2013-10-04T13:17:25Z</time>
      </trkpt>
      <trkpt lat="43.48978" lon="6.59302">
        <ele>18.51</ele>
        <time>2013-10-04T13:17:39Z</time>
      </trkpt>
      <trkpt lat="43.48968" lon="6.59323">
        <ele>17.45</ele>
        <time>2013-10-04T13:17:59Z</time>
      </trkpt>
      <trkpt lat="43.4896" lon="6.59348">
        <ele>17.86</ele>
        <time>2013-10-04T13:18:23Z</time>
      </trkpt>
      <trkpt lat="43.48952" lon="6.59373">
        <ele>17.8</ele>
        <time>2013-10-04T13:18:41Z</time>
      </trkpt>
      <trkpt lat="43.48949" lon="6.594">
        <ele>17.02</ele>
        <time>2013-10-04T13:19:03Z</time>
      </trkpt>
      <trkpt lat="43.48964" lon="6.59416">
        <ele>17.3</ele>
        <time>2013-10-04T13:19:23Z</time>
      </trkpt>
      <trkpt lat="43.48964" lon="6.59416">
        <ele>17.3</ele>
        <time>2013-10-04T13:19:23Z</time>
      </trkpt>
      <trkpt lat="43.48982" lon="6.59419">
        <ele>18</ele>
        <time>2013-10-04T13:19:49Z</time>
      </trkpt>
      <trkpt lat="43.48986" lon="6.59418">
        <ele>33.4</ele>
        <time>2013-10-04T13:21:15Z</time>
      </trkpt>
      <trkpt lat="43.49004" lon="6.59421">
        <ele>30.53</ele>
        <time>2013-10-04T13:21:55Z</time>
      </trkpt>
      <trkpt lat="43.49023" lon="6.5942">
        <ele>30.38</ele>
        <time>2013-10-04T13:22:25Z</time>
      </trkpt>
      <trkpt lat="43.49023" lon="6.5942">
        <ele>30.38</ele>
        <time>2013-10-04T13:22:25Z</time>
      </trkpt>
      <trkpt lat="43.49131" lon="6.59511">
        <ele>32.24</ele>
        <time>2013-10-04T13:26:02Z</time>
      </trkpt>
      <trkpt lat="43.49149" lon="6.59511">
        <ele>43.35</ele>
        <time>2013-10-04T13:26:20Z</time>
      </trkpt>
      <trkpt lat="43.49167" lon="6.59509">
        <ele>43.66</ele>
        <time>2013-10-04T13:26:34Z</time>
      </trkpt>
      <trkpt lat="43.49186" lon="6.59511">
        <ele>43.73</ele>
        <time>2013-10-04T13:26:50Z</time>
      </trkpt>
      <trkpt lat="43.49203" lon="6.5952">
        <ele>44.23</ele>
        <time>2013-10-04T13:27:22Z</time>
      </trkpt>
      <trkpt lat="43.49221" lon="6.59532">
        <ele>44.12</ele>
        <time>2013-10-04T13:27:48Z</time>
      </trkpt>
      <trkpt lat="43.49238" lon="6.59544">
        <ele>44.13</ele>
        <time>2013-10-04T13:28:12Z</time>
      </trkpt>
      <trkpt lat="43.49252" lon="6.59561">
        <ele>44.31</ele>
        <time>2013-10-04T13:28:36Z</time>
      </trkpt>
      <trkpt lat="43.49252" lon="6.59561">
        <ele>44.31</ele>
        <time>2013-10-04T13:28:36Z</time>
      </trkpt>
      <trkpt lat="43.49265" lon="6.59581">
        <ele>44.78</ele>
        <time>2013-10-04T13:29:00Z</time>
      </trkpt>
      <trkpt lat="43.49278" lon="6.596">
        <ele>46.35</ele>
        <time>2013-10-04T13:29:25Z</time>
      </trkpt>
      <trkpt lat="43.49296" lon="6.59606">
        <ele>48.15</ele>
        <time>2013-10-04T13:29:53Z</time>
      </trkpt>
      <trkpt lat="43.49314" lon="6.59614">
        <ele>48.65</ele>
        <time>2013-10-04T13:30:13Z</time>
      </trkpt>
      <trkpt lat="43.49326" lon="6.59633">
        <ele>49.67</ele>
        <time>2013-10-04T13:30:37Z</time>
      </trkpt>
      <trkpt lat="43.49342" lon="6.59645">
        <ele>48.75</ele>
        <time>2013-10-04T13:30:55Z</time>
      </trkpt>
      <trkpt lat="43.4936" lon="6.59652">
        <ele>48.98</ele>
        <time>2013-10-04T13:31:17Z</time>
      </trkpt>
      <trkpt lat="43.49378" lon="6.59647">
        <ele>48.69</ele>
        <time>2013-10-04T13:31:43Z</time>
      </trkpt>
      <trkpt lat="43.49378" lon="6.59647">
        <ele>48.69</ele>
        <time>2013-10-04T13:31:43Z</time>
      </trkpt>
      <trkpt lat="43.49397" lon="6.59651">
        <ele>48.51</ele>
        <time>2013-10-04T13:32:13Z</time>
      </trkpt>
      <trkpt lat="43.49415" lon="6.59651">
        <ele>49.37</ele>
        <time>2013-10-04T13:32:33Z</time>
      </trkpt>
      <trkpt lat="43.49431" lon="6.59639">
        <ele>49.73</ele>
        <time>2013-10-04T13:33:05Z</time>
      </trkpt>
      <trkpt lat="43.49449" lon="6.59634">
        <ele>49.94</ele>
        <time>2013-10-04T13:33:35Z</time>
      </trkpt>
      <trkpt lat="43.49465" lon="6.59647">
        <ele>50.95</ele>
        <time>2013-10-04T13:34:07Z</time>
      </trkpt>
      <trkpt lat="43.49482" lon="6.59658">
        <ele>52.09</ele>
        <time>2013-10-04T13:34:35Z</time>
      </trkpt>
      <trkpt lat="43.49482" lon="6.59658">
        <ele>52.09</ele>
        <time>2013-10-04T13:34:35Z</time>
      </trkpt>
      <trkpt lat="43.49499" lon="6.59669">
        <ele>54.02</ele>
        <time>2013-10-04T13:34:59Z</time>
      </trkpt>
      <trkpt lat="43.49518" lon="6.59674">
        <ele>55.04</ele>
        <time>2013-10-04T13:35:19Z</time>
      </trkpt>
      <trkpt lat="43.49536" lon="6.59678">
        <ele>56.17</ele>
        <time>2013-10-04T13:35:45Z</time>
      </trkpt>
      <trkpt lat="43.49555" lon="6.59682">
        <ele>57.05</ele>
        <time>2013-10-04T13:36:15Z</time>
      </trkpt>
      <trkpt lat="43.49572" lon="6.59693">
        <ele>58.06</ele>
        <time>2013-10-04T13:36:41Z</time>
      </trkpt>
      <trkpt lat="43.49589" lon="6.59703">
        <ele>59.2</ele>
        <time>2013-10-04T13:37:09Z</time>
      </trkpt>
      <trkpt lat="43.49607" lon="6.59712">
        <ele>60.82</ele>
        <time>2013-10-04T13:37:37Z</time>
      </trkpt>
      <trkpt lat="43.49607" lon="6.59712">
        <ele>60.82</ele>
        <time>2013-10-04T13:37:37Z</time>
      </trkpt>
      <trkpt lat="43.49623" lon="6.59724">
        <ele>62</ele>
        <time>2013-10-04T13:37:59Z</time>
      </trkpt>
      <trkpt lat="43.49641" lon="6.59732">
        <ele>63.44</ele>
        <time>2013-10-04T13:38:25Z</time>
      </trkpt>
      <trkpt lat="43.49648" lon="6.59755">
        <ele>65.06</ele>
        <time>2013-10-04T13:38:57Z</time>
      </trkpt>
      <trkpt lat="43.4965" lon="6.59783">
        <ele>65.64</ele>
        <time>2013-10-04T13:39:25Z</time>
      </trkpt>
      <trkpt lat="43.49649" lon="6.5981">
        <ele>65.56</ele>
        <time>2013-10-04T13:39:43Z</time>
      </trkpt>
      <trkpt lat="43.49657" lon="6.59833">
        <ele>65.85</ele>
        <time>2013-10-04T13:40:17Z</time>
      </trkpt>
      <trkpt lat="43.49667" lon="6.59854">
        <ele>66.1</ele>
        <time>2013-10-04T13:40:39Z</time>
      </trkpt>
      <trkpt lat="43.49667" lon="6.59854">
        <ele>66.1</ele>
        <time>2013-10-04T13:40:39Z</time>
      </trkpt>
      <trkpt lat="43.49677" lon="6.59875">
        <ele>66.13</ele>
        <time>2013-10-04T13:41:03Z</time>
      </trkpt>
      <trkpt lat="43.49692" lon="6.59893">
        <ele>65.78</ele>
        <time>2013-10-04T13:41:35Z</time>
      </trkpt>
      <trkpt lat="43.49709" lon="6.59902">
        <ele>66.57</ele>
        <time>2013-10-04T13:42:07Z</time>
      </trkpt>
      <trkpt lat="43.49726" lon="6.59914">
        <ele>66.07</ele>
        <time>2013-10-04T13:42:33Z</time>
      </trkpt>
      <trkpt lat="43.4974" lon="6.59933">
        <ele>65.66</ele>
        <time>2013-10-04T13:42:57Z</time>
      </trkpt>
      <trkpt lat="43.49756" lon="6.59947">
        <ele>65.78</ele>
        <time>2013-10-04T13:43:19Z</time>
      </trkpt>
      <trkpt lat="43.4977" lon="6.59963">
        <ele>65.73</ele>
        <time>2013-10-04T13:43:37Z</time>
      </trkpt>
      <trkpt lat="43.4977" lon="6.59963">
        <ele>65.73</ele>
        <time>2013-10-04T13:43:37Z</time>
      </trkpt>
      <trkpt lat="43.49786" lon="6.59974">
        <ele>65.69</ele>
        <time>2013-10-04T13:43:57Z</time>
      </trkpt>
      <trkpt lat="43.49801" lon="6.5999">
        <ele>66.01</ele>
        <time>2013-10-04T13:44:19Z</time>
      </trkpt>
      <trkpt lat="43.49813" lon="6.6001">
        <ele>65.74</ele>
        <time>2013-10-04T13:44:43Z</time>
      </trkpt>
      <trkpt lat="43.49813" lon="6.60035">
        <ele>66.06</ele>
        <time>2013-10-04T13:45:07Z</time>
      </trkpt>
      <trkpt lat="43.49806" lon="6.60059">
        <ele>65.97</ele>
        <time>2013-10-04T13:45:33Z</time>
      </trkpt>
      <trkpt lat="43.49798" lon="6.60083">
        <ele>65.64</ele>
        <time>2013-10-04T13:45:55Z</time>
      </trkpt>
      <trkpt lat="43.49801" lon="6.60109">
        <ele>65.95</ele>
        <time>2013-10-04T13:46:17Z</time>
      </trkpt>
      <trkpt lat="43.49803" lon="6.60134">
        <ele>66.41</ele>
        <time>2013-10-04T13:46:39Z</time>
      </trkpt>
      <trkpt lat="43.49803" lon="6.60134">
        <ele>66.41</ele>
        <time>2013-10-04T13:46:39Z</time>
      </trkpt>
      <trkpt lat="43.49797" lon="6.60159">
        <ele>66.37</ele>
        <time>2013-10-04T13:47:07Z</time>
      </trkpt>
      <trkpt lat="43.49786" lon="6.60179">
        <ele>66.25</ele>
        <time>2013-10-04T13:47:31Z</time>
      </trkpt>
      <trkpt lat="43.49776" lon="6.60201">
        <ele>65.81</ele>
        <time>2013-10-04T13:47:51Z</time>
      </trkpt>
      <trkpt lat="43.49768" lon="6.60226">
        <ele>64.91</ele>
        <time>2013-10-04T13:48:31Z</time>
      </trkpt>
      <trkpt lat="43.49762" lon="6.60251">
        <ele>64.86</ele>
        <time>2013-10-04T13:48:51Z</time>
      </trkpt>
      <trkpt lat="43.49761" lon="6.60277">
        <ele>64.83</ele>
        <time>2013-10-04T13:49:17Z</time>
      </trkpt>
      <trkpt lat="43.49756" lon="6.60303">
        <ele>65.39</ele>
        <time>2013-10-04T13:49:39Z</time>
      </trkpt>
      <trkpt lat="43.49756" lon="6.60303">
        <ele>65.39</ele>
        <time>2013-10-04T13:49:39Z</time>
      </trkpt>
      <trkpt lat="43.49753" lon="6.60329">
        <ele>66.04</ele>
        <time>2013-10-04T13:50:03Z</time>
      </trkpt>
      <trkpt lat="43.49754" lon="6.60355">
        <ele>66.38</ele>
        <time>2013-10-04T13:50:27Z</time>
      </trkpt>
      <trkpt lat="43.49762" lon="6.6038">
        <ele>67.83</ele>
        <time>2013-10-04T13:50:59Z</time>
      </trkpt>
      <trkpt lat="43.4978" lon="6.60395">
        <ele>68.42</ele>
        <time>2013-10-04T13:51:17Z</time>
      </trkpt>
      <trkpt lat="43.49792" lon="6.60415">
        <ele>69.31</ele>
        <time>2013-10-04T13:51:35Z</time>
      </trkpt>
      <trkpt lat="43.49806" lon="6.60435">
        <ele>69.66</ele>
        <time>2013-10-04T13:51:57Z</time>
      </trkpt>
      <trkpt lat="43.49818" lon="6.60455">
        <ele>70.06</ele>
        <time>2013-10-04T13:52:19Z</time>
      </trkpt>
      <trkpt lat="43.49833" lon="6.60471">
        <ele>70.06</ele>
        <time>2013-10-04T13:52:45Z</time>
      </trkpt>
      <trkpt lat="43.49833" lon="6.60471">
        <ele>70.06</ele>
        <time>2013-10-04T13:52:45Z</time>
      </trkpt>
      <trkpt lat="43.49851" lon="6.60479">
        <ele>71.45</ele>
        <time>2013-10-04T13:53:07Z</time>
      </trkpt>
      <trkpt lat="43.4985" lon="6.60511">
        <ele>80.49</ele>
        <time>2013-10-04T13:54:03Z</time>
      </trkpt>
      <trkpt lat="43.49873" lon="6.6053">
        <ele>79.92</ele>
        <time>2013-10-04T13:54:14Z</time>
      </trkpt>
      <trkpt lat="43.4987" lon="6.60538">
        <ele>85.41</ele>
        <time>2013-10-04T13:55:15Z</time>
      </trkpt>
      <trkpt lat="43.4987" lon="6.60538">
        <ele>85.41</ele>
        <time>2013-10-04T13:55:15Z</time>
      </trkpt>
      <trkpt lat="43.49862" lon="6.60561">
        <ele>78.1</ele>
        <time>2013-10-04T13:56:01Z</time>
      </trkpt>
      <trkpt lat="43.49868" lon="6.60587">
        <ele>73.98</ele>
        <time>2013-10-04T13:56:41Z</time>
      </trkpt>
      <trkpt lat="43.49867" lon="6.60575">
        <ele>71.27</ele>
        <time>2013-10-04T13:57:22Z</time>
      </trkpt>
      <trkpt lat="43.4987" lon="6.6058">
        <ele>69.48</ele>
        <time>2013-10-04T13:58:19Z</time>
      </trkpt>
      <trkpt lat="43.4987" lon="6.6058">
        <ele>69.48</ele>
        <time>2013-10-04T13:58:19Z</time>
      </trkpt>
      <trkpt lat="43.49888" lon="6.60572">
        <ele>69.1</ele>
        <time>2013-10-04T13:59:11Z</time>
      </trkpt>
      <trkpt lat="43.49905" lon="6.60562">
        <ele>69.05</ele>
        <time>2013-10-04T13:59:37Z</time>
      </trkpt>
      <trkpt lat="43.49921" lon="6.6055">
        <ele>68.16</ele>
        <time>2013-10-04T14:00:01Z</time>
      </trkpt>
      <trkpt lat="43.49937" lon="6.60534">
        <ele>70.47</ele>
        <time>2013-10-04T14:00:53Z</time>
      </trkpt>
      <trkpt lat="43.49956" lon="6.60525">
        <ele>70.29</ele>
        <time>2013-10-04T14:01:17Z</time>
      </trkpt>
      <trkpt lat="43.49973" lon="6.60518">
        <ele>68.91</ele>
        <time>2013-10-04T14:01:33Z</time>
      </trkpt>
      <trkpt lat="43.49991" lon="6.60506">
        <ele>67.2</ele>
        <time>2013-10-04T14:01:51Z</time>
      </trkpt>
      <trkpt lat="43.49991" lon="6.60506">
        <ele>67.2</ele>
        <time>2013-10-04T14:01:51Z</time>
      </trkpt>
      <trkpt lat="43.50007" lon="6.60495">
        <ele>66.24</ele>
        <time>2013-10-04T14:02:09Z</time>
      </trkpt>
      <trkpt lat="43.50024" lon="6.60483">
        <ele>65.75</ele>
        <time>2013-10-04T14:02:33Z</time>
      </trkpt>
      <trkpt lat="43.5004" lon="6.60473">
        <ele>65.73</ele>
        <time>2013-10-04T14:02:55Z</time>
      </trkpt>
      <trkpt lat="43.50057" lon="6.60464">
        <ele>65.56</ele>
        <time>2013-10-04T14:03:23Z</time>
      </trkpt>
      <trkpt lat="43.50074" lon="6.60453">
        <ele>66.1</ele>
        <time>2013-10-04T14:03:46Z</time>
      </trkpt>
      <trkpt lat="43.5009" lon="6.60441">
        <ele>65.71</ele>
        <time>2013-10-04T14:04:06Z</time>
      </trkpt>
      <trkpt lat="43.50089" lon="6.60416">
        <ele>66.16</ele>
        <time>2013-10-04T14:04:44Z</time>
      </trkpt>
      <trkpt lat="43.50089" lon="6.60416">
        <ele>66.16</ele>
        <time>2013-10-04T14:04:44Z</time>
      </trkpt>
      <trkpt lat="43.5008" lon="6.60394">
        <ele>66.71</ele>
        <time>2013-10-04T14:05:08Z</time>
      </trkpt>
      <trkpt lat="43.50064" lon="6.60382">
        <ele>67.64</ele>
        <time>2013-10-04T14:05:30Z</time>
      </trkpt>
      <trkpt lat="43.50056" lon="6.60375">
        <ele>67.29</ele>
        <time>2013-10-04T14:06:02Z</time>
      </trkpt>
      <trkpt lat="43.50055" lon="6.60375">
        <ele>67.58</ele>
        <time>2013-10-04T14:06:38Z</time>
      </trkpt>
      <trkpt lat="43.50043" lon="6.60356">
        <ele>67.82</ele>
        <time>2013-10-04T14:06:52Z</time>
      </trkpt>
      <trkpt lat="43.50033" lon="6.60335">
        <ele>67</ele>
        <time>2013-10-04T14:07:10Z</time>
      </trkpt>
      <trkpt lat="43.50027" lon="6.60311">
        <ele>65.38</ele>
        <time>2013-10-04T14:07:28Z</time>
      </trkpt>
      <trkpt lat="43.50024" lon="6.60286">
        <ele>64.79</ele>
        <time>2013-10-04T14:07:48Z</time>
      </trkpt>
      <trkpt lat="43.50024" lon="6.60286">
        <ele>64.79</ele>
        <time>2013-10-04T14:07:48Z</time>
      </trkpt>
      <trkpt lat="43.50032" lon="6.60262">
        <ele>62.71</ele>
        <time>2013-10-04T14:08:24Z</time>
      </trkpt>
      <trkpt lat="43.50042" lon="6.6024">
        <ele>60.71</ele>
        <time>2013-10-04T14:08:56Z</time>
      </trkpt>
      <trkpt lat="43.50052" lon="6.6022">
        <ele>58.45</ele>
        <time>2013-10-04T14:09:22Z</time>
      </trkpt>
      <trkpt lat="43.50059" lon="6.60194">
        <ele>57.38</ele>
        <time>2013-10-04T14:10:20Z</time>
      </trkpt>
      <trkpt lat="43.50067" lon="6.6017">
        <ele>55.91</ele>
        <time>2013-10-04T14:10:38Z</time>
      </trkpt>
      <trkpt lat="43.50067" lon="6.6017">
        <ele>55.91</ele>
        <time>2013-10-04T14:10:38Z</time>
      </trkpt>
      <trkpt lat="43.50059" lon="6.60161">
        <ele>55.92</ele>
        <time>2013-10-04T14:11:48Z</time>
      </trkpt>
      <trkpt lat="43.50066" lon="6.6016">
        <ele>56.36</ele>
        <time>2013-10-04T14:12:32Z</time>
      </trkpt>
      <trkpt lat="43.5007" lon="6.60155">
        <ele>56.26</ele>
        <time>2013-10-04T14:13:14Z</time>
      </trkpt>
      <trkpt lat="43.5007" lon="6.60155">
        <ele>56.26</ele>
        <time>2013-10-04T14:13:14Z</time>
      </trkpt>
      <trkpt lat="43.50073" lon="6.60142">
        <ele>53.24</ele>
        <time>2013-10-04T14:14:02Z</time>
      </trkpt>
      <trkpt lat="43.50091" lon="6.60149">
        <ele>53.65</ele>
        <time>2013-10-04T14:14:22Z</time>
      </trkpt>
      <trkpt lat="43.50107" lon="6.60161">
        <ele>53.44</ele>
        <time>2013-10-04T14:14:48Z</time>
      </trkpt>
      <trkpt lat="43.50123" lon="6.60175">
        <ele>53.79</ele>
        <time>2013-10-04T14:15:12Z</time>
      </trkpt>
      <trkpt lat="43.5014" lon="6.60184">
        <ele>54.24</ele>
        <time>2013-10-04T14:15:38Z</time>
      </trkpt>
      <trkpt lat="43.50157" lon="6.60197">
        <ele>54.27</ele>
        <time>2013-10-04T14:16:14Z</time>
      </trkpt>
      <trkpt lat="43.50175" lon="6.60197">
        <ele>55.39</ele>
        <time>2013-10-04T14:16:52Z</time>
      </trkpt>
      <trkpt lat="43.50175" lon="6.60197">
        <ele>55.39</ele>
        <time>2013-10-04T14:16:52Z</time>
      </trkpt>
      <trkpt lat="43.50194" lon="6.60188">
        <ele>55.82</ele>
        <time>2013-10-04T14:17:18Z</time>
      </trkpt>
      <trkpt lat="43.5021" lon="6.60178">
        <ele>57.04</ele>
        <time>2013-10-04T14:17:52Z</time>
      </trkpt>
      <trkpt lat="43.50225" lon="6.60163">
        <ele>58.28</ele>
        <time>2013-10-04T14:18:18Z</time>
      </trkpt>
      <trkpt lat="43.5024" lon="6.60145">
        <ele>59.46</ele>
        <time>2013-10-04T14:18:44Z</time>
      </trkpt>
      <trkpt lat="43.50251" lon="6.60124">
        <ele>60.33</ele>
        <time>2013-10-04T14:19:06Z</time>
      </trkpt>
      <trkpt lat="43.50262" lon="6.60105">
        <ele>61.94</ele>
        <time>2013-10-04T14:19:30Z</time>
      </trkpt>
      <trkpt lat="43.50262" lon="6.60105">
        <ele>61.94</ele>
        <time>2013-10-04T14:19:30Z</time>
      </trkpt>
      <trkpt lat="43.50279" lon="6.60092">
        <ele>63.09</ele>
        <time>2013-10-04T14:20:00Z</time>
      </trkpt>
      <trkpt lat="43.50291" lon="6.6011">
        <ele>64.66</ele>
        <time>2013-10-04T14:20:24Z</time>
      </trkpt>
      <trkpt lat="43.50306" lon="6.60126">
        <ele>65.51</ele>
        <time>2013-10-04T14:20:44Z</time>
      </trkpt>
      <trkpt lat="43.50324" lon="6.60132">
        <ele>66.35</ele>
        <time>2013-10-04T14:21:06Z</time>
      </trkpt>
      <trkpt lat="43.50338" lon="6.60115">
        <ele>67.32</ele>
        <time>2013-10-04T14:21:34Z</time>
      </trkpt>
      <trkpt lat="43.50352" lon="6.60097">
        <ele>69.36</ele>
        <time>2013-10-04T14:21:58Z</time>
      </trkpt>
      <trkpt lat="43.50368" lon="6.60081">
        <ele>69.3</ele>
        <time>2013-10-04T14:22:18Z</time>
      </trkpt>
      <trkpt lat="43.50381" lon="6.60061">
        <ele>70.06</ele>
        <time>2013-10-04T14:22:44Z</time>
      </trkpt>
      <trkpt lat="43.50381" lon="6.60061">
        <ele>70.06</ele>
        <time>2013-10-04T14:22:44Z</time>
      </trkpt>
      <trkpt lat="43.50397" lon="6.60049">
        <ele>69.82</ele>
        <time>2013-10-04T14:23:08Z</time>
      </trkpt>
      <trkpt lat="43.50415" lon="6.60044">
        <ele>68.5</ele>
        <time>2013-10-04T14:23:36Z</time>
      </trkpt>
      <trkpt lat="43.50434" lon="6.60039">
        <ele>67.68</ele>
        <time>2013-10-04T14:23:58Z</time>
      </trkpt>
      <trkpt lat="43.50452" lon="6.60031">
        <ele>67.17</ele>
        <time>2013-10-04T14:24:24Z</time>
      </trkpt>
      <trkpt lat="43.50466" lon="6.60013">
        <ele>67.88</ele>
        <time>2013-10-04T14:24:44Z</time>
      </trkpt>
      <trkpt lat="43.50474" lon="6.59995">
        <ele>66.99</ele>
        <time>2013-10-04T14:25:26Z</time>
      </trkpt>
      <trkpt lat="43.50491" lon="6.59984">
        <ele>67</ele>
        <time>2013-10-04T14:25:54Z</time>
      </trkpt>
      <trkpt lat="43.50491" lon="6.59984">
        <ele>67</ele>
        <time>2013-10-04T14:25:54Z</time>
      </trkpt>
      <trkpt lat="43.50504" lon="6.59963">
        <ele>67.47</ele>
        <time>2013-10-04T14:26:14Z</time>
      </trkpt>
      <trkpt lat="43.50515" lon="6.5994">
        <ele>67.94</ele>
        <time>2013-10-04T14:26:34Z</time>
      </trkpt>
      <trkpt lat="43.50519" lon="6.59915">
        <ele>67.92</ele>
        <time>2013-10-04T14:26:52Z</time>
      </trkpt>
      <trkpt lat="43.50517" lon="6.59889">
        <ele>67.7</ele>
        <time>2013-10-04T14:27:14Z</time>
      </trkpt>
      <trkpt lat="43.50519" lon="6.59864">
        <ele>67.97</ele>
        <time>2013-10-04T14:27:34Z</time>
      </trkpt>
      <trkpt lat="43.50516" lon="6.5984">
        <ele>68.31</ele>
        <time>2013-10-04T14:28:00Z</time>
      </trkpt>
      <trkpt lat="43.50516" lon="6.59834">
        <ele>67.5</ele>
        <time>2013-10-04T14:28:40Z</time>
      </trkpt>
      <trkpt lat="43.50516" lon="6.59834">
        <ele>67.5</ele>
        <time>2013-10-04T14:28:40Z</time>
      </trkpt>
      <trkpt lat="43.50516" lon="6.59831">
        <ele>66.79</ele>
        <time>2013-10-04T14:29:06Z</time>
      </trkpt>
      <trkpt lat="43.50516" lon="6.59805">
        <ele>65.25</ele>
        <time>2013-10-04T14:29:20Z</time>
      </trkpt>
      <trkpt lat="43.5052" lon="6.5978">
        <ele>65.58</ele>
        <time>2013-10-04T14:29:42Z</time>
      </trkpt>
      <trkpt lat="43.50509" lon="6.5976">
        <ele>65.95</ele>
        <time>2013-10-04T14:30:00Z</time>
      </trkpt>
      <trkpt lat="43.50496" lon="6.59741">
        <ele>66.71</ele>
        <time>2013-10-04T14:30:18Z</time>
      </trkpt>
      <trkpt lat="43.50496" lon="6.59714">
        <ele>67.33</ele>
        <time>2013-10-04T14:30:38Z</time>
      </trkpt>
      <trkpt lat="43.50498" lon="6.59687">
        <ele>67.23</ele>
        <time>2013-10-04T14:30:56Z</time>
      </trkpt>
      <trkpt lat="43.50498" lon="6.5966">
        <ele>66.7</ele>
        <time>2013-10-04T14:31:16Z</time>
      </trkpt>
      <trkpt lat="43.50498" lon="6.59632">
        <ele>66.18</ele>
        <time>2013-10-04T14:31:36Z</time>
      </trkpt>
      <trkpt lat="43.50498" lon="6.59632">
        <ele>66.18</ele>
        <time>2013-10-04T14:31:36Z</time>
      </trkpt>
      <trkpt lat="43.50487" lon="6.5961">
        <ele>65.42</ele>
        <time>2013-10-04T14:31:56Z</time>
      </trkpt>
      <trkpt lat="43.50473" lon="6.59594">
        <ele>65.7</ele>
        <time>2013-10-04T14:32:16Z</time>
      </trkpt>
      <trkpt lat="43.50457" lon="6.59582">
        <ele>66</ele>
        <time>2013-10-04T14:32:38Z</time>
      </trkpt>
      <trkpt lat="43.50442" lon="6.59567">
        <ele>65.84</ele>
        <time>2013-10-04T14:33:02Z</time>
      </trkpt>
      <trkpt lat="43.50429" lon="6.59545">
        <ele>64.91</ele>
        <time>2013-10-04T14:33:26Z</time>
      </trkpt>
      <trkpt lat="43.50426" lon="6.5952">
        <ele>63.96</ele>
        <time>2013-10-04T14:33:54Z</time>
      </trkpt>
      <trkpt lat="43.50435" lon="6.59504">
        <ele>62.39</ele>
        <time>2013-10-04T14:34:44Z</time>
      </trkpt>
      <trkpt lat="43.50435" lon="6.59504">
        <ele>62.39</ele>
        <time>2013-10-04T14:34:44Z</time>
      </trkpt>
      <trkpt lat="43.50433" lon="6.59505">
        <ele>62.38</ele>
        <time>2013-10-04T14:35:10Z</time>
      </trkpt>
      <trkpt lat="43.50432" lon="6.59503">
        <ele>61.39</ele>
        <time>2013-10-04T14:35:52Z</time>
      </trkpt>
      <trkpt lat="43.50444" lon="6.59483">
        <ele>59.53</ele>
        <time>2013-10-04T14:36:44Z</time>
      </trkpt>
      <trkpt lat="43.50457" lon="6.59464">
        <ele>57.53</ele>
        <time>2013-10-04T14:37:41Z</time>
      </trkpt>
      <trkpt lat="43.50457" lon="6.59464">
        <ele>57.53</ele>
        <time>2013-10-04T14:37:41Z</time>
      </trkpt>
      <trkpt lat="43.50471" lon="6.59448">
        <ele>56.33</ele>
        <time>2013-10-04T14:38:03Z</time>
      </trkpt>
      <trkpt lat="43.50482" lon="6.59427">
        <ele>55.22</ele>
        <time>2013-10-04T14:38:29Z</time>
      </trkpt>
      <trkpt lat="43.50492" lon="6.59404">
        <ele>54.85</ele>
        <time>2013-10-04T14:38:57Z</time>
      </trkpt>
      <trkpt lat="43.50493" lon="6.59378">
        <ele>54</ele>
        <time>2013-10-04T14:39:37Z</time>
      </trkpt>
      <trkpt lat="43.50491" lon="6.59354">
        <ele>54.79</ele>
        <time>2013-10-04T14:40:01Z</time>
      </trkpt>
      <trkpt lat="43.50488" lon="6.59329">
        <ele>54.72</ele>
        <time>2013-10-04T14:40:33Z</time>
      </trkpt>
      <trkpt lat="43.50488" lon="6.59329">
        <ele>54.72</ele>
        <time>2013-10-04T14:40:33Z</time>
      </trkpt>
      <trkpt lat="43.50491" lon="6.59305">
        <ele>53.34</ele>
        <time>2013-10-04T14:41:01Z</time>
      </trkpt>
      <trkpt lat="43.50498" lon="6.5928">
        <ele>53.52</ele>
        <time>2013-10-04T14:41:27Z</time>
      </trkpt>
      <trkpt lat="43.50494" lon="6.59254">
        <ele>52.68</ele>
        <time>2013-10-04T14:41:51Z</time>
      </trkpt>
      <trkpt lat="43.50492" lon="6.59229">
        <ele>51.36</ele>
        <time>2013-10-04T14:42:11Z</time>
      </trkpt>
      <trkpt lat="43.50484" lon="6.59206">
        <ele>52.13</ele>
        <time>2013-10-04T14:42:41Z</time>
      </trkpt>
      <trkpt lat="43.50471" lon="6.59187">
        <ele>53.43</ele>
        <time>2013-10-04T14:43:01Z</time>
      </trkpt>
      <trkpt lat="43.50453" lon="6.59172">
        <ele>54.76</ele>
        <time>2013-10-04T14:43:45Z</time>
      </trkpt>
      <trkpt lat="43.50453" lon="6.59172">
        <ele>54.76</ele>
        <time>2013-10-04T14:43:45Z</time>
      </trkpt>
      <trkpt lat="43.50436" lon="6.59164">
        <ele>53.95</ele>
        <time>2013-10-04T14:44:25Z</time>
      </trkpt>
      <trkpt lat="43.50417" lon="6.59157">
        <ele>53.49</ele>
        <time>2013-10-04T14:45:07Z</time>
      </trkpt>
      <trkpt lat="43.50412" lon="6.59157">
        <ele>53.17</ele>
        <time>2013-10-04T14:45:27Z</time>
      </trkpt>
      <trkpt lat="43.50395" lon="6.59147">
        <ele>52.15</ele>
        <time>2013-10-04T14:45:41Z</time>
      </trkpt>
      <trkpt lat="43.50378" lon="6.59141">
        <ele>50.32</ele>
        <time>2013-10-04T14:46:33Z</time>
      </trkpt>
      <trkpt lat="43.50378" lon="6.59141">
        <ele>50.32</ele>
        <time>2013-10-04T14:46:33Z</time>
      </trkpt>
      <trkpt lat="43.5036" lon="6.59134">
        <ele>47.68</ele>
        <time>2013-10-04T14:47:19Z</time>
      </trkpt>
      <trkpt lat="43.50362" lon="6.59109">
        <ele>45.01</ele>
        <time>2013-10-04T14:47:43Z</time>
      </trkpt>
      <trkpt lat="43.50365" lon="6.59082">
        <ele>44.64</ele>
        <time>2013-10-04T14:48:03Z</time>
      </trkpt>
      <trkpt lat="43.50383" lon="6.59081">
        <ele>40.9</ele>
        <time>2013-10-04T14:48:43Z</time>
      </trkpt>
      <trkpt lat="43.50402" lon="6.59072">
        <ele>39.51</ele>
        <time>2013-10-04T14:49:13Z</time>
      </trkpt>
      <trkpt lat="43.5042" lon="6.59065">
        <ele>37.27</ele>
        <time>2013-10-04T14:49:35Z</time>
      </trkpt>
    </trkseg>
  </trk>
</gpx>